Tiempo atmosférico en la estación meteorológica de Serradilla, Cáceres (410 m.)



Fecha
DESCASC
Temp. máxima en grados centígrados (hora)
DESCASC
Temp. mínima en grados centígrados (hora)
DESCASC
Temp. media en grados centígrados
DESCASC
Racha de viento máxima en m/sg (hora)
DESCASC
Velocidad máxima media en intervalos de 10 minutos(hora)
DESCASC
Precipitaciones diarias en mm
DESCASC
Precipitaciones de 00:00 a 06:00 en mm
DESCASC
Precipitaciones de 06:00 a 12:00 en mm
DESCASC
Precipitaciones de 12:00 a 18:00 en mm
DESCASC
Precipitaciones de 18:00 a 24:00 en mm
DESCASC
29-12-2020 10.6 (15:10) 2.7 (00:00) 6.7 9.72 (20:10) 5 (20:20) -- -- -- -- --
30-12-2020 9 (17:00) 3.1 (00:00) 6 10.56 (13:10) 6.39 (13:10) -- -- -- -- --
31-12-2020 8 (18:10) -0.5 (-00:0) 3.8 8.61 (00:30) 4.72 (18:40) -- -- -- -- --
28-12-2020 10.9 (14:40) 3.6 (00:00) 7.2 18.33 (02:10) 10.83 (02:30) -- -- -- -- --
12-01-2021 8.8 (15:50) -3.6 (-00:0) 2.6 3.33 (16:30) 2.22 (16:30) 0 0 0 0 0
25-01-2021 15.7 (16:00) 10 (00:00) 12.8 13.61 (15:40) 7.22 (15:40) 3 1.6 1.4 0 0
24-01-2021 12.6 (16:10) 7 (00:00) 9.8 11.67 (01:40) 6.39 (01:00) 0 0 0 0 0
19-01-2021 10.5 (15:40) 0.7 (00:00) 5.6 7.5 (00:20) 5.28 (00:20) 0 0 0 0 0
18-01-2021 11.7 (16:20) 0.7 (00:00) 6.2 8.89 (09:30) 6.67 (09:40) 0 0 0 0 0
17-01-2021 10.4 (16:30) 0.6 (00:00) 5.5 5.56 (08:40) 4.17 (23:10) 0 0 0 0 0
16-01-2021 11.9 (15:30) -1.2 (-00:0) 5.3 4.44 (11:30) 3.06 (11:20) 0 0 0 0 0
15-01-2021 8.5 (17:10) -1.8 (-00:0) 3.4 5.28 (00:30) 3.89 (00:10) 0 0 0 0 0
14-01-2021 9.8 (15:30) -2.2 (08:40) 3.8 5 (23:59) 3.61 (23:59) 0 0 0 0 0
13-01-2021 6.9 (16:10) -2.3 (-00:0) 2.3 4.72 (09:00) 3.33 (10:10) 0 0 0 0 0
11-01-2021 7.5 (15:50) 0.1 (00:00) 3.8 5.83 (18:10) 3.33 (18:00) 0 0 0 0 0
10-01-2021 7.4 (15:40) 0.5 (08:40) 4 7.78 (01:30) 4.72 (06:20) 0 0 0 0 0
07-01-2021 5.4 (13:30) 0.8 (00:00) 3.1 14.72 (07:20) 8.33 (15:10) 0 0 0 0 0
06-01-2021 5.7 (15:50) -1.9 (-00:0) 1.9 8.61 (19:20) 5.28 (11:10) 0 0 0 0 0
05-01-2021 7.1 (15:30) -3 (-00:0) 2 5.56 (13:50) 3.33 (13:40) 0 0 0 0 0
04-01-2021 7.5 (14:10) 0.8 (00:00) 4.2 5.83 (13:50) 2.78 (14:40) 0 0 0 0 0
03-01-2021 8.7 (15:10) -2.3 (-00:0) 3.2 8.61 (01:00) 5.28 (01:00) 0 0 0 0 0
02-01-2021 7.3 (16:10) 1.7 (00:00) 4.5 10 (15:00) 6.39 (15:20) 0 0 0 0 0
01-01-2021 8.3 (14:50) 2.9 (00:00) 5.6 12.22 (05:40) 7.78 (05:40) 0 0 0 0 0
08-01-2021 4.7 (14:10) 0.1 (00:00) 2.4 15.83 (20:00) 8.89 (17:40) 6.6 0 0 0.6 6
26-01-2021 14.7 (15:40) 11.9 (00:00) 13.3 9.17 (01:20) 4.72 (01:10) 1 0 0.4 0.6 0
09-01-2021 3.3 (00:00) 0.5 (00:00) 1.9 13.89 (00:20) 8.61 (00:20) 2 0.2 0.8 1 0
20-01-2021 12.9 (16:20) 6.6 (00:00) 9.7 11.94 (12:00) 7.22 (16:10) 11 0.2 8.6 1.8 0.4
22-01-2021 11.9 (02:00) 5 (00:00) 8.4 19.72 (05:30) 10 (05:30) 2.4 0.2 0 2.2 0
21-01-2021 11.6 (16:10) 9.3 (00:00) 10.5 9.72 (19:30) 5.28 (19:20) 20.8 0.8 2.6 5.2 12.2
23-01-2021 12.4 (21:50) 5 (00:00) 8.7 12.78 (19:40) 6.94 (19:50) 17 0 1 11.4 4.6

Gráficas

Temp. máximas Temp. mínimas Temp. medias Precipitaciones Rachas de viento máximas Velocidades máximas media en intervalos de 10 minutos

Datos horarios

Fecha y hora oficial Temperatura (ºC) Velocidad del viento (km/h) Dirección del viento Racha (km/h) Dirección de racha Precipitación (mm) Presión (hPa) Tendencia (hPa) Humedad (%)
2021-01-26 23:00:00 14.2 9 Sudoeste 14 Sudoeste 0 -- -- 100
2021-01-26 22:00:00 14.2 6 Sudoeste 11 Sudoeste 0 -- -- 100
2021-01-26 21:00:00 14.3 4 Oeste 9 Oeste 0 -- -- 100
2021-01-26 20:00:00 14.4 3 Oeste 10 Sudoeste 0 -- -- 100
2021-01-26 19:00:00 14.4 6 Sudoeste 9 Sudoeste 0 -- -- 100
2021-01-26 18:00:00 14.5 6 Sudoeste 12 Sudoeste 0.4 -- -- 100
2021-01-26 17:00:00 14.5 6 Sudoeste 13 Sudoeste 0 -- -- 99
2021-01-26 16:00:00 14.6 8 Sudoeste 17 Sudoeste 0 -- -- 98
2021-01-26 15:00:00 14.5 7 Oeste 17 Sudoeste 0.2 -- -- 99
2021-01-26 14:00:00 14 7 Sudoeste 16 Sudoeste 0 -- -- 100
2021-01-26 13:00:00 13.5 10 Sudoeste 16 Sudoeste 0 -- -- 100
2021-01-26 12:00:00 13.2 8 Sudoeste 15 Sudoeste 0 -- -- 100
2021-01-26 11:00:00 12.6 5 Oeste 10 Oeste 0 -- -- 100
2021-01-26 10:00:00 12.1 3 Oeste 9 Sudoeste 0 -- -- 100
2021-01-26 09:00:00 11.9 4 Oeste 10 Oeste 0.2 -- -- 100
2021-01-26 08:00:00 11.9 6 Sudoeste 14 Sudoeste 0.2 -- -- 100
2021-01-26 07:00:00 12 8 Sudoeste 19 Sudoeste 0 -- -- 100
2021-01-26 06:00:00 12.2 13 Sudoeste 21 Sudoeste 0 -- -- 100
2021-01-26 05:00:00 12.1 10 Sudoeste 19 Oeste 0 -- -- 100
2021-01-26 04:00:00 12.1 11 Sudoeste 21 Oeste 0 -- -- 99
2021-01-26 03:00:00 6.2 12 Oeste 24 Oeste 0 -- -- --
2021-01-26 02:00:00 12.4 13 Oeste 33 Oeste 0 -- -- 96
2021-01-26 01:00:00 12.4 16 Oeste 28 Oeste 0 -- -- 96
2021-01-26 00:00:00 12.6 15 Sudoeste 24 Sudoeste 0 -- -- 96
2021-01-25 23:00:00 12.9 14 Oeste 27 Sudoeste 0 -- -- 95
2021-01-25 22:00:00 13.1 17 Sudoeste 28 Sudoeste 0 -- -- 95
2021-01-25 21:00:00 13.4 16 Sudoeste 28 Sudoeste 0 -- -- 94
2021-01-25 20:00:00 13.8 18 Sudoeste 30 Sudoeste 0 -- -- 93
2021-01-25 19:00:00 14.1 15 Sudoeste 31 Sudoeste 0 -- -- 91
2021-01-25 18:00:00 14.8 19 Sudoeste 35 Sudoeste 0 -- -- 87
2021-01-25 17:00:00 15.4 17 Sudoeste 41 Sudoeste 0 -- -- 85
2021-01-25 16:00:00 15.7 26 Sudoeste 49 Oeste 0 -- -- 83
2021-01-25 15:00:00 14.7 24 Sudoeste 42 Sudoeste 0 -- -- 87
2021-01-25 14:00:00 14.3 20 Sudoeste 39 Sudoeste 0 -- -- 88
2021-01-25 13:00:00 13.7 22 Sudoeste 42 Sudoeste 0 -- -- 91
2021-01-25 12:00:00 13.3 22 Sudoeste 39 Oeste 0 -- -- 96
2021-01-25 11:00:00 12.3 17 Sudoeste 29 Sudoeste 0 -- -- 100
2021-01-25 10:00:00 11.5 11 Sudoeste 22 Sudoeste 0.8 -- -- 100
2021-01-25 09:00:00 11 11 Sudoeste 31 Sudoeste 0.4 -- -- 100
2021-01-25 08:00:00 10.9 14 Sudoeste 22 Sudoeste 0.2 -- -- 100
2021-01-25 07:00:00 10.8 8 Sudoeste 23 Sudoeste 0 -- -- 100
2021-01-25 06:00:00 10.6 12 Sudoeste 26 Sudoeste 0.8 -- -- 100
2021-01-25 05:00:00 10.6 12 Sudoeste 27 Sudoeste 0 -- -- 99
2021-01-25 04:00:00 10.5 14 Sudoeste 26 Sudoeste 0 -- -- 99
2021-01-25 03:00:00 10.3 12 Sudoeste 20 Sudoeste 0.2 -- -- 100
2021-01-25 02:00:00 10.2 8 Sudoeste 22 Sudoeste 0 -- -- 100
2021-01-25 01:00:00 10.1 9 Sudoeste 18 Sudoeste 0.6 -- -- 99
2021-01-25 00:00:00 10.2 9 Sudoeste 15 Sudoeste 0 -- -- 97
2021-01-24 23:00:00 10.1 4 Sudoeste 13 Sudoeste 0 -- -- 95
2021-01-24 22:00:00 10.3 7 Sudoeste 11 Sudoeste 0 -- -- 93
2021-01-24 21:00:00 10.3 4 Sudoeste 7 Oeste 0 -- -- 93
2021-01-24 20:00:00 10.6 5 Sudoeste 13 Sudoeste 0 -- -- 91
2021-01-24 19:00:00 11 8 Sudoeste 15 Oeste 0 -- -- 88
2021-01-24 18:00:00 11.4 6 Oeste 21 Oeste 0 -- -- 82
2021-01-24 17:00:00 11.9 9 Oeste 24 Sudoeste 0 -- -- 74
2021-01-24 16:00:00 12 11 Oeste 27 Oeste 0 -- -- 76
2021-01-24 15:00:00 11.2 14 Oeste 26 Oeste 0 -- -- 78
2021-01-24 14:00:00 11.5 10 Oeste 26 Sudoeste 0 -- -- 78
2021-01-24 13:00:00 12.2 13 Sudoeste 21 Oeste 0 -- -- 77
2021-01-24 12:00:00 11 11 Sudoeste 18 Sudoeste 0 -- -- 86
2021-01-24 11:00:00 9.5 9 Sudoeste 13 Sudoeste 0 -- -- 97
2021-01-24 10:00:00 7.8 9 Sudoeste 14 Sudoeste 0 -- -- 100
2021-01-24 09:00:00 7.2 9 Sudoeste 13 Sudoeste 0 -- -- 100
2021-01-24 08:00:00 7.1 6 Oeste 15 Sudoeste 0 -- -- 99
2021-01-24 07:00:00 7.3 6 Oeste 14 Sudoeste 0 -- -- 99
2021-01-24 06:00:00 7.6 9 Sudoeste 15 Sudoeste 0 -- -- 99
2021-01-24 05:00:00 8 9 Sudoeste 14 Sudoeste 0 -- -- 98
2021-01-24 04:00:00 8.7 8 Sudoeste 21 Sudoeste 0 -- -- 97
2021-01-24 03:00:00 9.2 12 Oeste 24 Sudoeste 0 -- -- 95
2021-01-24 02:00:00 9.9 15 Oeste 42 Sudoeste 0 -- -- 88
2021-01-24 01:00:00 10.6 23 Oeste 40 Oeste 0 -- -- 86
2021-01-24 00:00:00 12.2 17 Oeste 31 Sudoeste 0.6 -- -- 99
2021-01-23 23:00:00 12.4 20 Sudoeste 38 Sudoeste 0.2 -- -- 99
2021-01-23 22:00:00 12.4 19 Sudoeste 37 Sudoeste 0.2 -- -- 99
2021-01-23 21:00:00 12.2 22 Sudoeste 39 Sudoeste 0.6 -- -- 100
2021-01-23 20:00:00 12.3 24 Sudoeste 46 Sudoeste 0.4 -- -- 100
2021-01-23 19:00:00 11.7 19 Sudoeste 32 Sudoeste 2.6 -- -- 100
2021-01-23 18:00:00 11.2 15 Sudoeste 32 Sudoeste 4.4 -- -- 100
2021-01-23 17:00:00 10.8 17 Sudoeste 34 Sudoeste 2.8 -- -- 100
2021-01-23 16:00:00 10.3 18 Sudoeste 32 Sudoeste 1.6 -- -- 100
2021-01-23 15:00:00 9.7 18 Sudoeste 36 Sur 0.8 -- -- 100
2021-01-23 14:00:00 9.5 17 Sudoeste 32 Sudoeste 0.6 -- -- 100
2021-01-23 13:00:00 9.1 14 Sudoeste 29 Sudoeste 1.2 -- -- 100
2021-01-23 12:00:00 8 8 Sudoeste 16 Sudoeste 1 -- -- 99
2021-01-23 11:00:00 7.7 9 Sudoeste 25 Sudoeste 0 -- -- 97
2021-01-23 10:00:00 7.4 13 Sudoeste 24 Sur 0 -- -- 97
2021-01-23 09:00:00 6.9 10 Sudoeste 19 Sudoeste 0 -- -- 98
2021-01-23 08:00:00 6.5 10 Sudoeste 17 Sudoeste 0 -- -- 98
2021-01-23 07:00:00 6.3 6 Sudoeste 11 Sudoeste 0 -- -- 98
2021-01-23 06:00:00 6.2 3 Sur 15 Sudoeste 0 -- -- 98
2021-01-23 05:00:00 6.4 8 Sudoeste 16 Oeste 0 -- -- 98
2021-01-23 04:00:00 6.1 4 Sur 10 Sudoeste 0 -- -- 97
2021-01-23 03:00:00 6 4 Sur 9 Sur 0 -- -- 97
2021-01-23 02:00:00 5.8 5 Sudoeste 10 Oeste 0 -- -- 97
2021-01-23 01:00:00 5.3 4 Sudoeste 14 Sudoeste 0 -- -- 96
2021-01-23 00:00:00 5 4 Sur 13 Sudoeste 0 -- -- 94
2021-01-22 23:00:00 5.2 3 Sudoeste 9 Sudoeste 0 -- -- 90
2021-01-22 22:00:00 5.5 3 Sudoeste 14 Oeste 0 -- -- 87
2021-01-22 21:00:00 6.8 9 Oeste 18 Oeste 0 -- -- 82
2021-01-22 20:00:00 7.3 9 Oeste 18 Oeste 0 -- -- 81
2021-01-22 19:00:00 8.9 7 Oeste 33 Oeste 0 -- -- 75
2021-01-22 18:00:00 10.4 17 Oeste 37 Oeste 0 -- -- 66
2021-01-22 17:00:00 10.9 17 Oeste 43 Oeste 0 -- -- 68
2021-01-22 16:00:00 10.3 16 Oeste 37 Oeste 0 -- -- 73
2021-01-22 15:00:00 10.5 17 Oeste 40 Noroeste 0 -- -- 80
2021-01-22 14:00:00 8.6 21 Oeste 54 Sudoeste 2.2 -- -- 89
2021-01-22 13:00:00 11.1 26 Oeste 50 Oeste 0 -- -- 77
2021-01-22 12:00:00 10.8 22 Sudoeste 48 Sudoeste 0 -- -- 81
2021-01-22 11:00:00 9.6 26 Sudoeste 45 Sudoeste 0 -- -- 84
2021-01-22 10:00:00 8.9 21 Sudoeste 40 Sudoeste 0 -- -- 86
2021-01-22 09:00:00 8.6 21 Sudoeste 36 Oeste 0 -- -- 87
2021-01-22 08:00:00 9 17 Sudoeste 46 Oeste 0 -- -- 87
2021-01-22 07:00:00 10.1 19 Oeste 52 Sudoeste 0 -- -- 82
2021-01-22 06:00:00 10.7 35 Sudoeste 71 Sudoeste 0 -- -- 82
2021-01-22 05:00:00 11.5 27 Sudoeste 46 Sudoeste 0 -- -- 90
2021-01-22 04:00:00 11.9 28 Sudoeste 47 Sudoeste 0 -- -- 92
2021-01-22 03:00:00 11.8 26 Sudoeste 42 Sudoeste 0 -- -- 93
2021-01-22 02:00:00 11.9 30 Sudoeste 58 Sudoeste 0.2 -- -- 98
2021-01-22 01:00:00 11.6 19 Sudoeste 41 Sudoeste 0 -- -- 100
2021-01-22 00:00:00 11.4 16 Sudoeste 29 Sudoeste 0.4 -- -- 100
2021-01-21 23:00:00 11.4 18 Sudoeste 31 Sur 2.2 -- -- 100
2021-01-21 22:00:00 11.2 13 Sudoeste 29 Sudoeste 4.4 -- -- 100
2021-01-21 21:00:00 11.1 14 Sudoeste 30 Sudoeste 2.8 -- -- 100
2021-01-21 20:00:00 10.9 14 Sudoeste 35 Sudoeste 1.2 -- -- 99
2021-01-21 19:00:00 10.7 15 Sudoeste 30 Sudoeste 1.2 -- -- 99
2021-01-21 18:00:00 11.1 18 Sudoeste 29 Sudoeste 1.8 -- -- 99
2021-01-21 17:00:00 11.3 18 Sudoeste 34 Sudoeste 1 -- -- 98
2021-01-21 16:00:00 11.5 17 Sudoeste 33 Sudoeste 0.4 -- -- 98
2021-01-21 15:00:00 11.3 15 Sudoeste 31 Sudoeste 0.8 -- -- 98
2021-01-21 14:00:00 11.2 16 Sudoeste 33 Sudoeste 0.2 -- -- 99
2021-01-21 13:00:00 10.7 17 Sudoeste 29 Sudoeste 1 -- -- 99
2021-01-21 12:00:00 10.4 14 Sudoeste 27 Sudoeste 1 -- -- 98
2021-01-21 11:00:00 10.4 10 Sudoeste 21 Sudoeste 0 -- -- 100
2021-01-21 10:00:00 9.6 15 Sudoeste 24 Sudoeste 0.8 -- -- 100
2021-01-21 09:00:00 9.4 10 Sudoeste 26 Sudoeste 0.6 -- -- 100
2021-01-21 08:00:00 9.3 8 Sudoeste 16 Sudoeste 0 -- -- 100
2021-01-21 07:00:00 9.4 12 Sudoeste 22 Sudoeste 0.2 -- -- 100
2021-01-21 06:00:00 9.4 13 Sudoeste 19 Sudoeste 0 -- -- 99
2021-01-21 05:00:00 9.6 10 Sudoeste 19 Sudoeste 0.4 -- -- 99
2021-01-21 04:00:00 9.8 10 Sudoeste 23 Sudoeste 0.2 -- -- 98
2021-01-21 03:00:00 9.7 12 Sudoeste 24 Sudoeste 0.2 -- -- 98
2021-01-21 02:00:00 9.8 12 Sudoeste 27 Sudoeste 0 -- -- 98
2021-01-21 01:00:00 9.6 15 Sudoeste 26 Sudoeste 0 -- -- 97
2021-01-21 00:00:00 9.6 12 Sudoeste 21 Sudoeste 0 -- -- 97
2021-01-20 23:00:00 9.6 12 Sudoeste 22 Sudoeste 0 -- -- 96
2021-01-20 22:00:00 9.5 11 Sudoeste 21 Sudoeste 0 -- -- 97
2021-01-20 21:00:00 9.4 11 Sudoeste 22 Sudoeste 0 -- -- 96
2021-01-20 20:00:00 10.1 13 Sudoeste 32 Sudoeste 0.4 -- -- 95
2021-01-20 19:00:00 10.7 18 Sudoeste 34 Sudoeste 0 -- -- 94
2021-01-20 18:00:00 11.2 15 Sudoeste 28 Sudoeste 1.8 -- -- 95
2021-01-20 17:00:00 12 17 Sudoeste 42 Sudoeste 0 -- -- 87
2021-01-20 16:00:00 12.6 23 Sudoeste 39 Sudoeste 0 -- -- 82
2021-01-20 15:00:00 12.2 21 Sudoeste 43 Sur 0 -- -- 81
2021-01-20 14:00:00 12.3 19 Sudoeste 38 Sur 0 -- -- 82
2021-01-20 13:00:00 11 13 Sur 29 Sudoeste 0 -- -- 87
2021-01-20 12:00:00 10.2 21 Sudoeste 43 Sur 0 -- -- 91
2021-01-20 11:00:00 8.2 6 Este 10 Sudeste 0 -- -- 98
2021-01-20 10:00:00 7.4 6 Este 14 Este 0 -- -- 99
2021-01-20 09:00:00 6.9 9 Este 20 Este 0 -- -- 99
2021-01-20 08:00:00 6.8 9 Este 14 Nordeste 3.6 -- -- 98
2021-01-20 07:00:00 6.8 0 Calma 5 Nordeste 5 -- -- 95
2021-01-20 06:00:00 8.1 4 Este 20 Este 0.2 -- -- 88
2021-01-20 05:00:00 8.4 10 Este 22 Sudeste 0 -- -- 83
2021-01-20 04:00:00 8.2 11 Sudeste 21 Sudeste 0 -- -- 83
2021-01-20 03:00:00 7.1 3 Este 10 Sudeste 0 -- -- 87
2021-01-20 02:00:00 7.3 4 Este 9 Este 0 -- -- 86
2021-01-20 01:00:00 7.2 4 Este 9 Este 0 -- -- 85
2021-01-20 00:00:00 6.8 4 Este 8 Este 0 -- -- 85
2021-01-19 23:00:00 7 6 Nordeste 11 Nordeste 0 -- -- 81
2021-01-19 22:00:00 7.3 6 Este 11 Este 0 -- -- 79
2021-01-19 21:00:00 7.5 6 Este 14 Este 0 -- -- 79
2021-01-19 20:00:00 7.8 9 Este 13 Este 0 -- -- 79
2021-01-19 19:00:00 8.2 8 Este 12 Este 0 -- -- 77
2021-01-19 18:00:00 9.3 5 Este 10 Sudeste 0 -- -- 76
2021-01-19 17:00:00 10.3 6 Sur 15 Sudeste 0 -- -- 70
2021-01-19 16:00:00 10.4 6 Sudoeste 14 Sur 0 -- -- 72
2021-01-19 15:00:00 9.8 3 Oeste 12 Sudoeste 0 -- -- 72
2021-01-19 14:00:00 9.3 3 Sur 9 Sur 0 -- -- 70
2021-01-19 13:00:00 7.1 5 Nordeste 13 Este 0 -- -- 74
2021-01-19 12:00:00 5.4 7 Nordeste 14 Nordeste 0 -- -- 78
2021-01-19 11:00:00 3.7 10 Nordeste 16 Nordeste 0 -- -- 85
2021-01-19 10:00:00 2.2 9 Nordeste 14 Nordeste 0 -- -- 88
2021-01-19 09:00:00 0.7 13 Nordeste 19 Nordeste 0 -- -- 91
2021-01-19 08:00:00 1.3 12 Nordeste 18 Nordeste 0 -- -- 90
2021-01-19 07:00:00 2 10 Nordeste 16 Nordeste 0 -- -- 87
2021-01-19 06:00:00 2.4 9 Nordeste 16 Nordeste 0 -- -- 86
2021-01-19 05:00:00 2.4 9 Nordeste 15 Nordeste 0 -- -- 89
2021-01-19 04:00:00 2.8 10 Nordeste 16 Nordeste 0 -- -- 86
2021-01-19 03:00:00 3.5 10 Este 16 Este 0 -- -- 83
2021-01-19 02:00:00 4 12 Nordeste 21 Nordeste 0 -- -- 81
2021-01-19 01:00:00 4.2 13 Nordeste 27 Nordeste 0 -- -- 82
2021-01-19 00:00:00 5.8 20 Nordeste 28 Nordeste 0 -- -- 77
2021-01-18 23:00:00 6.1 15 Nordeste 21 Nordeste 0 -- -- 77
2021-01-18 22:00:00 6.7 9 Este 15 Nordeste 0 -- -- 73
2021-01-18 21:00:00 7.5 9 Nordeste 15 Nordeste 0 -- -- 69
2021-01-18 20:00:00 8.3 10 Este 20 Nordeste 0 -- -- 64
2021-01-18 19:00:00 8.1 10 Nordeste 15 Nordeste 0 -- -- 65
2021-01-18 18:00:00 10.1 9 Nordeste 14 Este 0 -- -- 58
2021-01-18 17:00:00 11.5 8 Este 16 Este 0 -- -- 52
2021-01-18 16:00:00 11.6 10 Nordeste 18 Este 0 -- -- 53
2021-01-18 15:00:00 11 12 Nordeste 21 Nordeste 0 -- -- 53
2021-01-18 14:00:00 9.8 11 Nordeste 21 Nordeste 0 -- -- 50
2021-01-18 13:00:00 8 12 Nordeste 21 Nordeste 0 -- -- 57
2021-01-18 12:00:00 5.6 14 Nordeste 24 Nordeste 0 -- -- 64
2021-01-18 11:00:00 3.5 12 Nordeste 24 Este 0 -- -- 67
2021-01-18 10:00:00 2.5 14 Nordeste 32 Nordeste 0 -- -- 69
2021-01-18 09:00:00 0.7 9 Este 24 Nordeste 0 -- -- 77
2021-01-18 08:00:00 1.1 13 Nordeste 25 Nordeste 0 -- -- 77
2021-01-18 07:00:00 2.5 15 Nordeste 27 Nordeste 0 -- -- 70
2021-01-18 06:00:00 2.9 18 Nordeste 26 Nordeste 0 -- -- 68
2021-01-18 05:00:00 3 17 Nordeste 25 Este 0 -- -- 69
2021-01-18 04:00:00 2.4 12 Nordeste 16 Nordeste 0 -- -- 75
2021-01-18 03:00:00 2.1 8 Nordeste 19 Nordeste 0 -- -- 76
2021-01-18 02:00:00 3.1 14 Nordeste 21 Nordeste 0 -- -- 76
2021-01-18 01:00:00 3.5 13 Nordeste 18 Este 0 -- -- 80
2021-01-18 00:00:00 3.6 9 Este 20 Nordeste 0 -- -- 79
2021-01-17 23:00:00 4.9 14 Nordeste 20 Nordeste 0 -- -- 76
2021-01-17 22:00:00 5.6 12 Nordeste 19 Este 0 -- -- 72
2021-01-17 21:00:00 5.7 10 Nordeste 13 Nordeste 0 -- -- 64
2021-01-17 20:00:00 5.8 5 Nordeste 7 Nordeste 0 -- -- 66
2021-01-17 19:00:00 6.4 5 Nordeste 8 Nordeste 0 -- -- 67
2021-01-17 18:00:00 8.8 3 Este 6 Este 0 -- -- 62
2021-01-17 17:00:00 10.2 4 Sudeste 11 Este 0 -- -- 57
2021-01-17 16:00:00 10.2 7 Nordeste 12 Nordeste 0 -- -- 58
2021-01-17 15:00:00 9.5 8 Este 14 Nordeste 0 -- -- 62
2021-01-17 14:00:00 8 10 Nordeste 15 Este 0 -- -- 64
2021-01-17 13:00:00 6.2 10 Nordeste 18 Nordeste 0 -- -- 69
2021-01-17 12:00:00 5.1 11 Nordeste 17 Nordeste 0 -- -- 77
2021-01-17 11:00:00 3.6 9 Nordeste 16 Este 0 -- -- 81
2021-01-17 10:00:00 1.5 6 Este 13 Nordeste 0 -- -- 87
2021-01-17 09:00:00 0.7 7 Nordeste 20 Nordeste 0 -- -- 90
2021-01-17 08:00:00 1.1 4 Este 16 Nordeste 0 -- -- 89
2021-01-17 07:00:00 1.2 11 Nordeste 17 Nordeste 0 -- -- 94
2021-01-17 06:00:00 1.8 12 Nordeste 17 Nordeste 0 -- -- 93
2021-01-17 05:00:00 2 9 Nordeste 17 Nordeste 0 -- -- 94
2021-01-17 04:00:00 1.9 10 Nordeste 13 Nordeste 0 -- -- 94
2021-01-17 03:00:00 3.3 7 Nordeste 10 Nordeste 0 -- -- 89
2021-01-17 02:00:00 3.1 3 Este 8 Este 0 -- -- 85
2021-01-17 01:00:00 3 4 Este 8 Este 0 -- -- 85
2021-01-17 00:00:00 4.7 0 Calma 3 Este 0 -- -- 79
2021-01-16 23:00:00 5 0 Calma 4 Este 0 -- -- 81
2021-01-16 22:00:00 4.6 2 Norte 7 Este 0 -- -- 84
2021-01-16 21:00:00 6.8 0 Calma 3 Oeste 0 -- -- 71
2021-01-16 20:00:00 7.7 0 Calma -- -- 0 -- -- 66
2021-01-16 19:00:00 8.2 3 Este 5 Este 0 -- -- 68
2021-01-16 18:00:00 10.6 4 Nordeste 4 Este 0 -- -- 62
2021-01-16 17:00:00 11.2 0 Calma 5 Sur 0 -- -- 57
2021-01-16 16:00:00 11.7 3 Este 7 Sudeste 0 -- -- 54
2021-01-16 15:00:00 11 3 Sudeste 10 Sudeste 0 -- -- 58
2021-01-16 14:00:00 9.7 4 Este 10 Nordeste 0 -- -- 65
2021-01-16 13:00:00 6.9 4 Este 14 Nordeste 0 -- -- 73
2021-01-16 12:00:00 4.1 10 Nordeste 16 Este 0 -- -- 85
2021-01-16 11:00:00 2.4 8 Este 14 Este 0 -- -- 90
2021-01-16 10:00:00 1.4 9 Nordeste 12 Nordeste 0 -- -- 92
2021-01-16 09:00:00 -0.9 7 Nordeste 12 Nordeste 0 -- -- 96
2021-01-16 08:00:00 -0.7 4 Este 6 Nordeste 0 -- -- 97
2021-01-16 07:00:00 0.1 0 Calma 6 Oeste 0 -- -- 93
2021-01-16 06:00:00 0.4 4 Oeste 6 Oeste 0 -- -- 95
2021-01-16 05:00:00 0.7 0 Calma 10 Oeste -- -- -- 91
2021-01-16 04:00:00 1.4 9 Oeste 12 Sudoeste 0 -- -- 90
2021-01-16 03:00:00 4.1 3 Norte 6 Norte 0 -- -- 80
2021-01-16 02:00:00 3 0 Calma 4 Sudoeste 0 -- -- 85
2021-01-16 01:00:00 3.2 3 Este 11 Este 0 -- -- 82
2021-01-16 00:00:00 4.4 7 Este 12 Nordeste 0 -- -- 79
2021-01-15 23:00:00 4.8 6 Nordeste 10 Nordeste 0 -- -- 77
2021-01-15 22:00:00 4.6 5 Nordeste 9 Nordeste 0 -- -- 77
2021-01-15 21:00:00 5.2 5 Este 10 Nordeste 0 -- -- 74
2021-01-15 20:00:00 5.2 6 Nordeste 14 Nordeste 0 -- -- 72
2021-01-15 19:00:00 5.7 6 Nordeste 10 Nordeste 0 -- -- 69
2021-01-15 18:00:00 7.2 6 Nordeste 10 Nordeste 0 -- -- 67
2021-01-15 17:00:00 8.4 6 Este 10 Este 0 -- -- 61
2021-01-15 16:00:00 8.4 6 Este 14 Este 0 -- -- 61
2021-01-15 15:00:00 7.3 6 Este 14 Nordeste 0 -- -- 67
2021-01-15 14:00:00 6.6 11 Este 18 Este 0 -- -- 71
2021-01-15 13:00:00 5.5 8 Este 15 Este 0 -- -- 75
2021-01-15 12:00:00 3.2 6 Este 13 Este 0 -- -- 82
2021-01-15 11:00:00 1 4 Este 8 Este 0 -- -- 90
2021-01-15 10:00:00 0.5 0 Calma 3 Nordeste 0 -- -- 92
2021-01-15 09:00:00 -1.7 2 Sudoeste 5 Sudoeste 0 -- -- 95
2021-01-15 08:00:00 -0.8 4 Sudoeste 9 Sudoeste 0 -- -- 93
2021-01-15 07:00:00 -0.3 3 Sudoeste 10 Este 0 -- -- 89
2021-01-15 06:00:00 -0.3 7 Este 11 Este 0 -- -- 92
2021-01-15 05:00:00 0.9 3 Este 6 Este 0 -- -- 89
2021-01-15 04:00:00 0.7 0 Calma 11 Este 0 -- -- 89
2021-01-15 03:00:00 1.9 9 Este 16 Nordeste 0 -- -- 84
2021-01-15 02:00:00 1.2 9 Nordeste 14 Nordeste 0 -- -- 88
2021-01-15 01:00:00 1.3 9 Nordeste 19 Nordeste 0 -- -- 88
2021-01-15 00:00:00 2.3 13 Nordeste 18 Nordeste 0 -- -- 86
2021-01-14 23:00:00 2.5 9 Nordeste 14 Nordeste 0 -- -- 83
2021-01-14 22:00:00 3 7 Nordeste 13 Nordeste 0 -- -- 79
2021-01-14 21:00:00 2.9 10 Nordeste 13 Nordeste 0 -- -- 80
2021-01-14 20:00:00 4.4 5 Este 8 Este 0 -- -- 78
2021-01-14 19:00:00 5.3 2 Nordeste 6 Nordeste 0 -- -- 74
2021-01-14 18:00:00 8 3 Este 8 Sur 0 -- -- 65
2021-01-14 17:00:00 9.4 3 Sur 8 Sur 0 -- -- 59
2021-01-14 16:00:00 9.8 3 Sur 8 Sur 0 -- -- 57
2021-01-14 15:00:00 9.2 3 Oeste 8 Sudoeste 0 -- -- 59
2021-01-14 14:00:00 7.3 2 Sur 9 Este 0 -- -- 64
2021-01-14 13:00:00 4.3 5 Este 12 Sudeste 0 -- -- 72
2021-01-14 12:00:00 2.5 9 Este 17 Este 0 -- -- 77
2021-01-14 11:00:00 0.6 6 Este 14 Este 0 -- -- 82
2021-01-14 10:00:00 -0.5 6 Nordeste 14 Nordeste 0 -- -- 84
2021-01-14 09:00:00 -2 7 Nordeste 12 Nordeste 0 -- -- 89
2021-01-14 08:00:00 -2.1 4 Nordeste 9 Nordeste 0 -- -- 92
2021-01-14 07:00:00 -1.4 5 Este 16 Nordeste 0 -- -- 88
2021-01-14 06:00:00 -0.7 10 Nordeste 15 Nordeste 0 -- -- 86
2021-01-14 05:00:00 -0.6 3 Este 13 Nordeste 0 -- -- 89
2021-01-14 04:00:00 -0.2 9 Nordeste 14 Este 0 -- -- 89
2021-01-14 03:00:00 0.7 10 Nordeste 15 Nordeste 0 -- -- 87
2021-01-14 02:00:00 1 6 Nordeste 12 Nordeste 0 -- -- 85
2021-01-14 01:00:00 1.4 8 Nordeste 12 Nordeste 0 -- -- 84
2021-01-14 00:00:00 1.4 8 Nordeste 12 Nordeste 0 -- -- 84
2021-01-13 23:00:00 1.7 6 Nordeste 12 Nordeste 0 -- -- 82
2021-01-13 22:00:00 2.1 10 Nordeste 13 Nordeste 0 -- -- 81
2021-01-13 21:00:00 2.4 6 Nordeste 10 Nordeste 0 -- -- 72
2021-01-13 20:00:00 2.4 8 Este 11 Este 0 -- -- 79
2021-01-13 19:00:00 3.3 4 Nordeste 9 Nordeste 0 -- -- 75
2021-01-13 18:00:00 5.6 4 Este 8 Este 0 -- -- 68
2021-01-13 17:00:00 6.6 4 Este 8 Este 0 -- -- 66
2021-01-13 16:00:00 6.7 2 Sudeste 8 Este 0 -- -- 63
2021-01-13 15:00:00 6.6 2 Este 10 Este 0 -- -- 62
2021-01-13 14:00:00 5.3 7 Sudeste 15 Este 0 -- -- 67
2021-01-13 13:00:00 3.3 -- -- -- -- 0 -- -- 76
2021-01-13 12:00:00 1.2 7 Este 15 Este 0 -- -- 85
2021-01-13 11:00:00 -0.5 12 Este 17 Este 0 -- -- 88
2021-01-13 10:00:00 -1.1 10 Nordeste 17 Este 0 -- -- 85
2021-01-13 09:00:00 -2.1 11 Nordeste 17 Nordeste 0 -- -- 89
2021-01-13 08:00:00 -2.3 5 Nordeste 9 Nordeste 0 -- -- 90
2021-01-13 07:00:00 -1.4 6 Nordeste 13 Nordeste 0 -- -- 87
2021-01-13 06:00:00 -1.2 8 Nordeste 15 Este 0 -- -- 87
2021-01-13 05:00:00 -1.3 8 Nordeste 12 Nordeste 0 -- -- 90
2021-01-13 04:00:00 -1.3 5 Nordeste 9 Este 0 -- -- 90
2021-01-13 03:00:00 -0.2 5 Nordeste 9 Este 0 -- -- 85
2021-01-13 02:00:00 0.1 5 Nordeste 12 Nordeste 0 -- -- 85
2021-01-13 01:00:00 0.7 8 Este 11 Nordeste 0 -- -- 83
2021-01-13 00:00:00 2.4 6 Nordeste 8 Nordeste 0 -- -- 76
2021-01-12 23:00:00 2.6 6 Nordeste 9 Nordeste 0 -- -- 75
2021-01-12 22:00:00 2.7 5 Nordeste 8 Nordeste 0 -- -- 73
2021-01-12 21:00:00 4 5 Este 7 Este 0 -- -- 66
2021-01-12 20:00:00 4.9 4 Oeste 5 Oeste 0 -- -- 60
2021-01-12 19:00:00 5.4 3 Oeste 6 Sudoeste 0 -- -- 58
2021-01-12 18:00:00 7.6 4 Sudoeste 11 Sudoeste 0 -- -- 53
2021-01-12 17:00:00 8.1 7 Sudoeste 12 Sur 0 -- -- 50
2021-01-12 16:00:00 8.5 5 Sudoeste 10 Sudoeste 0 -- -- 49
2021-01-12 15:00:00 8.3 3 Sudoeste 10 Sur 0 -- -- 54
2021-01-12 14:00:00 6.8 3 Sur 7 Sudoeste 0 -- -- 57
2021-01-12 13:00:00 3.8 3 Sudeste 7 Este 0 -- -- 66
2021-01-12 12:00:00 1.9 3 Sudeste 6 Sudeste 0 -- -- 80
2021-01-12 11:00:00 0 0 Calma 5 Sudeste 0 -- -- 82
2021-01-12 10:00:00 -1.2 3 Sudeste 4 Sudeste 0 -- -- 85
2021-01-12 09:00:00 -3.5 0 Calma 3 Norte 0 -- -- 91
2021-01-12 08:00:00 -3.5 0 Calma 4 Este 0 -- -- 91
2021-01-12 07:00:00 -2.8 0 Calma 5 Sudoeste 0 -- -- 90
2021-01-12 06:00:00 -2.1 6 Sudoeste 6 Oeste 0 -- -- 90
2021-01-12 05:00:00 -3.1 3 Este 8 Este 0 -- -- 90
2021-01-12 04:00:00 -0.6 3 Este 5 Nordeste 0 -- -- 78
2021-01-12 03:00:00 0.8 3 Norte 9 Norte 0 -- -- 73
2021-01-12 02:00:00 -0.2 5 Nordeste 8 Nordeste 0 -- -- 78
2021-01-12 01:00:00 -0.6 3 Norte 5 Norte 0 -- -- 78
2021-01-12 00:00:00 2 2 Norte 9 Nordeste 0 -- -- 67
2021-01-11 23:00:00 2.2 4 Nordeste 10 Nordeste 0 -- -- 68
2021-01-11 22:00:00 2.4 4 Nordeste 14 Nordeste 0 -- -- 66
2021-01-11 21:00:00 2.9 9 Norte 16 Norte 0 -- -- 65
2021-01-11 20:00:00 2.6 4 Norte 14 Noroeste 0 -- -- 65
2021-01-11 19:00:00 3.9 6 Norte 21 Norte 0 -- -- 60
2021-01-11 18:00:00 5.6 12 Norte 19 Norte 0 -- -- 57
2021-01-11 17:00:00 7 3 Este 9 Este 0 -- -- 55
2021-01-11 16:00:00 7.4 5 Sudeste 13 Nordeste 0 -- -- 55
2021-01-11 15:00:00 6.8 7 Este 17 Este 0 -- -- 55
2021-01-11 14:00:00 5.9 9 Este 17 Este 0 -- -- 57
2021-01-11 13:00:00 5.2 7 Este 17 Nordeste 0 -- -- 60
2021-01-11 12:00:00 4.3 10 Nordeste 14 Nordeste 0 -- -- 62
2021-01-11 11:00:00 3.2 5 Nordeste 10 Nordeste 0 -- -- 68
2021-01-11 10:00:00 1.8 7 Norte 12 Norte 0 -- -- 75
2021-01-11 09:00:00 0.2 7 Nordeste 18 Norte 0 -- -- 82
2021-01-11 08:00:00 0.7 10 Norte 15 Norte 0 -- -- 76
2021-01-11 07:00:00 0.3 2 Noroeste 13 Norte 0 -- -- 70
2021-01-11 06:00:00 1.6 8 Norte 14 Norte 0 -- -- 75
2021-01-11 05:00:00 1.6 8 Nordeste 16 Norte 0 -- -- 77
2021-01-11 04:00:00 1.5 3 Norte 13 Norte 0 -- -- 76
2021-01-11 03:00:00 1.6 5 Norte 15 Norte 0 -- -- 79
2021-01-11 02:00:00 1.3 9 Norte 15 Norte 0 -- -- 84
2021-01-11 01:00:00 1.2 4 Nordeste 19 Nordeste 0 -- -- 85
2021-01-11 00:00:00 1.9 10 Nordeste 17 Norte 0 -- -- 84
2021-01-10 23:00:00 2 5 Nordeste 19 Norte 0 -- -- 83
2021-01-10 22:00:00 2.1 5 Nordeste 11 Norte 0 -- -- 83
2021-01-10 21:00:00 2.1 5 Nordeste 11 Nordeste 0 -- -- 85
2021-01-10 20:00:00 2.5 5 Nordeste 13 Nordeste 0 -- -- 83
2021-01-10 19:00:00 3.6 8 Nordeste 14 Nordeste 0 -- -- 78
2021-01-10 18:00:00 5.2 6 Este 13 Este 0 -- -- 72
2021-01-10 17:00:00 6.2 4 Nordeste 13 Sudeste 0 -- -- 67
2021-01-10 16:00:00 6.9 8 Este 15 Este 0 -- -- 67
2021-01-10 15:00:00 7.1 6 Este 14 Este 0 -- -- 66
2021-01-10 14:00:00 6 8 Este 15 Nordeste 0 -- -- 71
2021-01-10 13:00:00 5.2 11 Nordeste 21 Nordeste 0 -- -- 76
2021-01-10 12:00:00 4.1 9 Norte 18 Nordeste 0 -- -- 82
2021-01-10 11:00:00 2.4 7 Nordeste 15 Nordeste 0 -- -- 87
2021-01-10 10:00:00 2.1 7 Norte 11 Norte 0 -- -- 86
2021-01-10 09:00:00 0.7 6 Nordeste 19 Norte 0 -- -- 89
2021-01-10 08:00:00 0.7 9 Norte 20 Nordeste 0 -- -- 92
2021-01-10 07:00:00 1.3 10 Nordeste 27 Nordeste 0 -- -- 92
2021-01-10 06:00:00 1.4 13 Nordeste 27 Norte 0 -- -- 94
2021-01-10 05:00:00 1.7 16 Nordeste 27 Nordeste 0 -- -- 94
2021-01-10 04:00:00 0.8 7 Nordeste 21 Nordeste 0 -- -- 95
2021-01-10 03:00:00 1.7 14 Nordeste 28 Nordeste 0 -- -- 93
2021-01-10 02:00:00 1.6 14 Nordeste 28 Este 0 -- -- 94
2021-01-10 01:00:00 1.9 10 Nordeste 24 Nordeste 0 -- -- 95
2021-01-10 00:00:00 1.9 14 Nordeste 22 Este 0 -- -- 97
2021-01-09 23:00:00 2 13 Nordeste 23 Este 0 -- -- 97
2021-01-09 22:00:00 1.8 14 Nordeste 22 Nordeste 0 -- -- 97
2021-01-09 21:00:00 1.5 4 Nordeste 9 Norte 0 -- -- 94
2021-01-09 20:00:00 1.8 3 Nordeste 5 Nordeste 0 -- -- 92
2021-01-09 19:00:00 1.7 3 Norte 6 Noroeste 0 -- -- 88
2021-01-09 18:00:00 1.8 4 Norte 15 Noroeste 0 -- -- 88
2021-01-09 17:00:00 1.9 6 Norte 12 Noroeste 0 -- -- 87
2021-01-09 16:00:00 2.3 5 Noroeste 9 Noroeste 0 -- -- 87
2021-01-09 15:00:00 2.5 0 Calma 8 Noroeste 0 -- -- 91
2021-01-09 14:00:00 2 4 Noroeste 10 Norte 0.4 -- -- 93
2021-01-09 13:00:00 1.3 4 Norte 8 Noroeste 0.6 -- -- 96
2021-01-09 12:00:00 1.6 2 Noroeste 5 Norte 0.4 -- -- 96
2021-01-09 11:00:00 0.8 3 Norte 13 Norte 0.4 -- -- 96
2021-01-09 10:00:00 0.7 6 Norte 15 Norte 0 -- -- 93
2021-01-09 09:00:00 0.7 7 Norte 21 Norte 0 -- -- 92
2021-01-09 08:00:00 1.1 6 Norte 14 Norte 0 -- -- 90
2021-01-09 07:00:00 1.5 8 Norte 14 Noroeste 0 -- -- 89
2021-01-09 06:00:00 1.7 7 Norte 13 Nordeste 0 -- -- 90
2021-01-09 05:00:00 2 6 Noroeste 14 Norte 0 -- -- 91
2021-01-09 04:00:00 2.9 9 Nordeste 30 Nordeste 0 -- -- 94
2021-01-09 03:00:00 2.8 12 Nordeste 32 Nordeste 0 -- -- 94
2021-01-09 02:00:00 3.1 13 Nordeste 26 Nordeste 0 -- -- 96
2021-01-09 01:00:00 3 18 Nordeste 50 Este 0.2 -- -- 95
2021-01-09 00:00:00 3.3 22 Nordeste 35 Nordeste 0.6 -- -- 95
2021-01-08 23:00:00 3.2 15 Nordeste 41 Este 0.6 -- -- 96
2021-01-08 22:00:00 3 21 Nordeste 48 Este 1.4 -- -- 95
2021-01-08 21:00:00 3.1 23 Nordeste 49 Este 1.6 -- -- 95
2021-01-08 20:00:00 3.5 29 Nordeste 57 Nordeste 1 -- -- 94
2021-01-08 19:00:00 3.7 26 Nordeste 43 Este 0.8 -- -- 93
2021-01-08 18:00:00 3.8 25 Nordeste 55 Este 0.6 -- -- 92
2021-01-08 17:00:00 4.6 26 Nordeste 49 Este 0 -- -- 83
2021-01-08 16:00:00 4.6 24 Nordeste 49 Este 0 -- -- 85
2021-01-08 15:00:00 4.7 17 Nordeste 39 Nordeste 0 -- -- 83
2021-01-08 14:00:00 4.6 19 Nordeste 37 Nordeste 0 -- -- 78
2021-01-08 13:00:00 3.5 20 Nordeste 34 Nordeste 0 -- -- 77
2021-01-08 12:00:00 3.3 18 Nordeste 37 Nordeste 0 -- -- 73
2021-01-08 11:00:00 1.8 21 Nordeste 32 Nordeste 0 -- -- 77
2021-01-08 10:00:00 1.2 16 Nordeste 30 Nordeste 0 -- -- 76
2021-01-08 09:00:00 0.8 15 Nordeste 31 Nordeste 0 -- -- 75
2021-01-08 08:00:00 0.8 19 Nordeste 31 Nordeste 0 -- -- 75
2021-01-08 07:00:00 0.1 16 Nordeste 33 Nordeste 0 -- -- 76
2021-01-08 06:00:00 0.5 19 Nordeste 35 Nordeste 0 -- -- 76
2021-01-08 05:00:00 0.4 19 Nordeste 32 Nordeste 0 -- -- 80
2021-01-08 04:00:00 0.3 14 Nordeste 25 Nordeste 0 -- -- 85
2021-01-08 03:00:00 0.3 13 Nordeste 21 Nordeste 0 -- -- 88
2021-01-08 02:00:00 0.3 11 Nordeste 19 Nordeste 0 -- -- 91
2021-01-08 01:00:00 0.4 9 Nordeste 16 Nordeste 0 -- -- 93
2021-01-08 00:00:00 0.8 10 Nordeste 24 Nordeste 0 -- -- 92
2021-01-07 23:00:00 1.2 16 Nordeste 37 Nordeste 0 -- -- 91
2021-01-07 22:00:00 1.5 20 Nordeste 37 Este 0 -- -- 90
2021-01-07 21:00:00 1.9 19 Este 34 Nordeste 0 -- -- 89
2021-01-07 20:00:00 2.5 16 Nordeste 40 Este 0 -- -- 89
2021-01-07 19:00:00 2.4 23 Nordeste 37 Este 0 -- -- 88
2021-01-07 18:00:00 3.1 17 Nordeste 36 Nordeste 0 -- -- 86
2021-01-07 17:00:00 4.3 19 Nordeste 38 Este 0 -- -- 81
2021-01-07 16:00:00 4.5 25 Este 44 Este 0 -- -- 80
2021-01-07 15:00:00 5 28 Nordeste 46 Este 0 -- -- 78
2021-01-07 14:00:00 5.2 27 Nordeste 39 Nordeste 0 -- -- 79
2021-01-07 13:00:00 4.3 22 Este 48 Este 0 -- -- 82
2021-01-07 12:00:00 4.3 26 Nordeste 44 Este 0 -- -- 80
2021-01-07 11:00:00 3.9 22 Este 39 Este 0 -- -- 78
2021-01-07 10:00:00 3.1 17 Nordeste 42 Este 0 -- -- 79
2021-01-07 09:00:00 3 21 Nordeste 45 Este 0 -- -- 75
2021-01-07 08:00:00 2.6 20 Nordeste 53 Este 0 -- -- 76
2021-01-07 07:00:00 2.5 21 Nordeste 38 Nordeste 0 -- -- 73
2021-01-07 06:00:00 2.3 18 Nordeste 30 Este 0 -- -- 70
2021-01-07 05:00:00 2.2 12 Nordeste 18 Nordeste 0 -- -- 72
2021-01-07 04:00:00 2.1 8 Este 24 Nordeste 0 -- -- 74
2021-01-07 03:00:00 2.2 15 Nordeste 23 Nordeste 0 -- -- 74
2021-01-07 02:00:00 1.9 13 Nordeste 21 Nordeste 0 -- -- 76
2021-01-07 01:00:00 1.2 9 Nordeste 15 Este 0 -- -- 78
2021-01-07 00:00:00 2.5 12 Este 24 Nordeste 0 -- -- 73
2021-01-06 23:00:00 2.5 15 Nordeste 25 Nordeste 0 -- -- 73
2021-01-06 22:00:00 2.5 14 Nordeste 25 Nordeste 0 -- -- 72
2021-01-06 21:00:00 3.1 13 Nordeste 25 Nordeste 0 -- -- 71
2021-01-06 20:00:00 4.1 15 Nordeste 31 Nordeste 0 -- -- 66
2021-01-06 19:00:00 4.6 17 Nordeste 30 Nordeste 0 -- -- 64
2021-01-06 18:00:00 4.8 12 Nordeste 30 Este 0 -- -- 63
2021-01-06 17:00:00 5.2 16 Nordeste 28 Nordeste 0 -- -- 64
2021-01-06 16:00:00 5.7 14 Nordeste 26 Este 0 -- -- 64
2021-01-06 15:00:00 4.8 14 Nordeste 30 Nordeste 0 -- -- 67
2021-01-06 14:00:00 4.3 13 Este 22 Este 0 -- -- 67
2021-01-06 13:00:00 3 13 Nordeste 24 Este 0 -- -- 72
2021-01-06 12:00:00 1.7 18 Nordeste 28 Nordeste 0 -- -- 75
2021-01-06 11:00:00 0.6 18 Nordeste 28 Nordeste 0 -- -- 78
2021-01-06 10:00:00 -0.8 12 Nordeste 24 Nordeste 0 -- -- 82
2021-01-06 09:00:00 -1.9 10 Este 19 Nordeste 0 -- -- 85
2021-01-06 08:00:00 -1.2 8 Este 15 Nordeste 0 -- -- 82
2021-01-06 07:00:00 -0.9 7 Nordeste 20 Nordeste 0 -- -- 80
2021-01-06 06:00:00 -0.8 6 Este 19 Nordeste 0 -- -- 79
2021-01-06 05:00:00 0.2 12 Nordeste 22 Nordeste 0 -- -- 77
2021-01-06 04:00:00 0.6 8 Este 20 Nordeste 0 -- -- 75
2021-01-06 03:00:00 0.9 8 Este 14 Nordeste 0 -- -- 76
2021-01-06 02:00:00 0.6 6 Nordeste 10 Nordeste 0 -- -- 78
2021-01-06 01:00:00 0.5 6 Nordeste 8 Nordeste 0 -- -- 77
2021-01-06 00:00:00 1.9 5 Este 9 Nordeste 0 -- -- 71
2021-01-05 23:00:00 2.3 3 Nordeste 9 Nordeste 0 -- -- 69
2021-01-05 22:00:00 2.3 7 Nordeste 9 Nordeste 0 -- -- 72
2021-01-05 21:00:00 3 5 Nordeste 7 Nordeste 0 -- -- 70
2021-01-05 20:00:00 2.8 4 Nordeste 5 Nordeste 0 -- -- 73
2021-01-05 19:00:00 3.5 4 Nordeste 6 Nordeste 0 -- -- 72
2021-01-05 18:00:00 5.4 4 Nordeste 7 Este 0 -- -- 63
2021-01-05 17:00:00 6.4 4 Este 10 Este 0 -- -- 58
2021-01-05 16:00:00 6.6 5 Nordeste 12 Este 0 -- -- 60
2021-01-05 15:00:00 6.7 8 Este 17 Este 0 -- -- 61
2021-01-05 14:00:00 5.7 9 Este 20 Nordeste 0 -- -- 68
2021-01-05 13:00:00 4.1 10 Este 17 Nordeste 0 -- -- 76
2021-01-05 12:00:00 2.4 8 Este 14 Este 0 -- -- 85
2021-01-05 11:00:00 0.7 8 Nordeste 13 Nordeste 0 -- -- 89
2021-01-05 10:00:00 0.5 8 Este 10 Este 0 -- -- 88
2021-01-05 09:00:00 -2 3 Nordeste 5 Nordeste 0 -- -- 96
2021-01-05 08:00:00 -2.5 4 Este 6 Este 0 -- -- 93
2021-01-05 07:00:00 -1.3 5 Este 9 Este 0 -- -- 89
2021-01-05 06:00:00 -0.2 3 Este 7 Nordeste 0 -- -- 89
2021-01-05 05:00:00 -0.5 4 Este 7 Este 0 -- -- 87
2021-01-05 04:00:00 1.3 5 Este 14 Norte 0 -- -- 75
2021-01-05 03:00:00 2.2 5 Norte 14 Norte 0 -- -- 71
2021-01-05 02:00:00 2.2 6 Nordeste 15 Nordeste 0 -- -- 75
2021-01-05 01:00:00 1.8 0 Calma 7 Nordeste 0 -- -- 79
2021-01-05 00:00:00 1.9 3 Nordeste 5 Nordeste 0 -- -- 84
2021-01-04 23:00:00 2.5 4 Este 6 Este 0 -- -- 81
2021-01-04 22:00:00 3.6 3 Este 6 Nordeste 0 -- -- 78
2021-01-04 21:00:00 4.2 4 Oeste 7 Sudoeste 0 -- -- 72
2021-01-04 20:00:00 4.3 4 Oeste 5 Oeste 0 -- -- 77
2021-01-04 19:00:00 4.6 4 Oeste 8 Sudoeste 0 -- -- 74
2021-01-04 18:00:00 6.3 6 Sudoeste 13 Oeste 0 -- -- 66
2021-01-04 17:00:00 7 8 Sudoeste 15 Sudoeste 0 -- -- 63
2021-01-04 16:00:00 6.6 6 Oeste 17 Oeste 0 -- -- 66
2021-01-04 15:00:00 6.9 9 Oeste 19 Oeste 0 -- -- 59
2021-01-04 14:00:00 7.4 8 Oeste 21 Oeste 0 -- -- 67
2021-01-04 13:00:00 6.7 8 Noroeste 16 Oeste 0 -- -- 68
2021-01-04 12:00:00 5.3 6 Sudoeste 12 Sur 0 -- -- 89
2021-01-04 11:00:00 3.1 2 Este 8 Sudoeste 0 -- -- 93
2021-01-04 10:00:00 2.5 6 Sudoeste 13 Sudoeste 0 -- -- 97
2021-01-04 09:00:00 0.8 7 Oeste 11 Oeste 0 -- -- 97
2021-01-04 08:00:00 1.3 8 Sudoeste 12 Sudoeste 0 -- -- 97
2021-01-04 07:00:00 1.5 4 Sudoeste 11 Sudoeste 0 -- -- 96
2021-01-04 06:00:00 1.7 3 Sudoeste 13 Sudoeste 0 -- -- 94
2021-01-04 05:00:00 1.5 6 Sudoeste 9 Sudoeste 0 -- -- 94
2021-01-04 04:00:00 1.3 3 Oeste 13 Sudoeste 0 -- -- 93
2021-01-04 03:00:00 1.3 6 Oeste 10 Sudoeste 0 -- -- 89
2021-01-04 02:00:00 2 0 Calma 12 Oeste 0 -- -- 83
2021-01-04 01:00:00 2.8 2 Oeste 15 Sudoeste 0 -- -- 78
2021-01-04 00:00:00 3 9 Sudoeste 15 Sudoeste 0 -- -- 78
2021-01-03 23:00:00 3.6 3 Sudoeste 14 Noroeste 0 -- -- 75
2021-01-03 22:00:00 4.8 9 Oeste 18 Oeste 0 -- -- 69
2021-01-03 21:00:00 4.3 6 Oeste 16 Noroeste 0 -- -- 72
2021-01-03 20:00:00 4.9 10 Sudoeste 14 Sudoeste -- -- -- 72
2021-01-03 19:00:00 5.3 5 Oeste 14 Oeste -- -- -- 71
2021-01-03 18:00:00 6.6 8 Sudoeste 19 Oeste -- -- -- 69
2021-01-03 17:00:00 8.1 8 Oeste 23 Noroeste -- -- -- 64
2021-01-03 16:00:00 8.2 9 Noroeste 24 Oeste -- -- -- 64
2021-01-03 15:00:00 8.4 7 Oeste 21 Noroeste -- -- -- 62
2021-01-03 14:00:00 7.4 10 Noroeste 20 Noroeste -- -- -- 61
2021-01-03 13:00:00 6.4 5 Noroeste 12 Sudoeste -- -- -- 62
2021-01-03 12:00:00 4 4 Sudoeste 9 Sudoeste -- -- -- 78
2021-01-03 11:00:00 1.2 3 Sudeste 6 Sudeste -- -- -- 84
2021-01-03 10:00:00 -0.2 2 Nordeste 8 Sur -- -- -- 85
2021-01-03 09:00:00 -2.3 3 Nordeste 6 Sudeste -- -- -- 92
2021-01-03 08:00:00 -0.5 3 Este 8 Oeste -- -- -- 85
2021-01-03 07:00:00 0.8 4 Oeste 13 Noroeste -- -- -- 80
2021-01-03 06:00:00 1.9 5 Sudoeste 23 Noroeste -- -- -- 75
2021-01-03 05:00:00 3.6 15 Noroeste 26 Noroeste -- -- -- 68
2021-01-03 04:00:00 3.1 14 Noroeste 26 Noroeste -- -- -- 73
2021-01-03 03:00:00 3.2 14 Noroeste 23 Noroeste -- -- -- 72
2021-01-03 02:00:00 3.9 15 Noroeste 29 Noroeste -- -- -- 68
2021-01-03 01:00:00 4.7 19 Noroeste 31 Noroeste -- -- -- 63
2021-01-03 00:00:00 4.5 15 Norte 24 Noroeste -- -- -- 61
2021-01-02 23:00:00 4.5 4 Norte 25 Noroeste -- -- -- 57
2021-01-02 22:00:00 4.3 10 Noroeste 19 Noroeste -- -- -- 57
2021-01-02 21:00:00 3.4 3 Noroeste 11 Norte -- -- -- 61
2021-01-02 20:00:00 4.6 8 Norte 18 Noroeste -- -- -- 56
2021-01-02 19:00:00 5.4 9 Norte 17 Norte -- -- -- 54
2021-01-02 18:00:00 6.3 11 Norte 30 Norte -- -- -- 53
2021-01-02 17:00:00 7 17 Norte 30 Noroeste -- -- -- 51
2021-01-02 16:00:00 7.2 15 Norte 35 Noroeste -- -- -- 53
2021-01-02 15:00:00 7 15 Noroeste 36 Noroeste -- -- -- 59
2021-01-02 14:00:00 6.7 14 Noroeste 30 Noroeste -- -- -- 59